createdAt,value
2018-11-03T00:00:03.011Z,0.00
2018-11-03T00:01:02.923Z,0.00
2018-11-03T00:02:02.865Z,0.00
2018-11-03T00:03:02.809Z,0.00
2018-11-03T00:04:02.758Z,0.00
2018-11-03T00:05:02.760Z,0.00
2018-11-03T00:06:02.644Z,0.00
2018-11-03T00:07:02.592Z,0.00
2018-11-03T00:08:02.539Z,0.00
2018-11-03T00:09:02.482Z,0.00
2018-11-03T00:10:02.418Z,0.00
2018-11-03T00:11:02.411Z,0.00
2018-11-03T00:12:02.305Z,0.00
2018-11-03T00:13:02.266Z,0.00
2018-11-03T00:14:02.209Z,0.00
2018-11-03T00:15:02.169Z,0.00
2018-11-03T00:16:02.119Z,0.00
2018-11-03T00:17:02.031Z,0.00
2018-11-03T00:18:01.985Z,0.00
2018-11-03T00:19:01.918Z,0.00
2018-11-03T00:20:01.864Z,0.00
2018-11-03T00:21:01.846Z,0.00
2018-11-03T00:22:01.748Z,0.00
2018-11-03T00:23:01.740Z,0.00
2018-11-03T00:24:01.636Z,0.00
2018-11-03T00:25:01.583Z,0.00
2018-11-03T00:26:01.563Z,0.00
2018-11-03T00:27:01.470Z,0.00
2018-11-03T00:28:01.412Z,0.00
2018-11-03T00:29:01.359Z,0.00
2018-11-03T00:30:01.299Z,0.00
2018-11-03T00:31:01.288Z,0.00
2018-11-03T00:32:01.189Z,0.00
2018-11-03T00:33:01.140Z,0.00
2018-11-03T00:34:01.077Z,0.00
2018-11-03T00:35:01.021Z,0.00
2018-11-03T00:36:01.003Z,0.00
2018-11-03T00:37:00.910Z,0.00
2018-11-03T00:38:00.863Z,0.00
2018-11-03T00:39:00.806Z,0.00
2018-11-03T00:40:00.744Z,0.00
2018-11-03T00:41:00.708Z,0.00
2018-11-03T00:42:00.635Z,0.00
2018-11-03T00:43:00.571Z,0.00
2018-11-03T00:44:00.518Z,0.00
2018-11-03T00:45:00.466Z,0.00
2018-11-03T00:46:00.451Z,0.00
2018-11-03T00:47:00.355Z,0.00
2018-11-03T00:48:00.296Z,0.00
2018-11-03T00:49:00.241Z,0.00
2018-11-03T00:50:00.179Z,0.00
2018-11-03T00:51:00.152Z,0.00
2018-11-03T00:52:00.077Z,0.00
2018-11-03T00:53:00.034Z,0.00
2018-11-03T00:53:59.957Z,0.00
2018-11-03T00:54:59.901Z,0.00
2018-11-03T00:55:59.869Z,0.00
2018-11-03T00:56:59.791Z,0.00
2018-11-03T00:57:59.731Z,0.00
2018-11-03T00:58:59.684Z,0.00
2018-11-03T00:59:59.646Z,0.00
2018-11-03T01:00:59.593Z,0.00
2018-11-03T01:01:59.506Z,0.00
2018-11-03T01:02:59.456Z,0.00
2018-11-03T01:03:59.400Z,0.00
2018-11-03T01:04:59.341Z,0.00
2018-11-03T01:05:59.325Z,0.00
2018-11-03T01:06:59.255Z,0.00
2018-11-03T01:07:59.171Z,0.00
2018-11-03T01:08:59.119Z,0.00
2018-11-03T01:09:59.059Z,0.00
2018-11-03T01:10:59.030Z,0.00
2018-11-03T01:11:58.972Z,0.00
2018-11-03T01:12:58.892Z,0.00
2018-11-03T01:13:58.835Z,0.00
2018-11-03T01:14:58.782Z,0.00
2018-11-03T01:15:58.746Z,0.00
2018-11-03T01:16:58.675Z,0.00
2018-11-03T01:17:58.633Z,0.00
2018-11-03T01:18:58.557Z,0.00
2018-11-03T01:19:58.502Z,0.00
2018-11-03T01:20:58.485Z,0.00
2018-11-03T01:21:58.402Z,0.00
2018-11-03T01:22:58.332Z,0.00
2018-11-03T01:23:58.276Z,0.00
2018-11-03T01:24:58.222Z,0.00
2018-11-03T01:25:58.198Z,0.00
2018-11-03T01:26:58.129Z,0.00
2018-11-03T01:27:58.051Z,0.00
2018-11-03T01:28:57.995Z,0.00
2018-11-03T01:29:57.936Z,0.00
2018-11-03T01:30:57.912Z,0.00
2018-11-03T01:31:57.831Z,0.00
2018-11-03T01:32:57.771Z,0.00
2018-11-03T01:33:57.717Z,0.00
2018-11-03T01:34:57.660Z,0.00
2018-11-03T01:35:57.603Z,0.00
2018-11-03T01:36:57.614Z,0.00
2018-11-03T01:37:57.493Z,0.00
2018-11-03T01:38:57.436Z,0.00
2018-11-03T01:39:57.376Z,0.00
2018-11-03T01:40:57.326Z,0.00
2018-11-03T01:41:57.326Z,0.00
2018-11-03T01:42:57.223Z,0.00
2018-11-03T01:43:57.183Z,0.00
2018-11-03T01:44:57.097Z,0.00
2018-11-03T01:45:57.052Z,0.00
2018-11-03T01:46:57.036Z,0.00
2018-11-03T01:47:56.943Z,0.00
2018-11-03T01:48:56.874Z,0.00
2018-11-03T01:49:56.821Z,0.00
2018-11-03T01:50:56.773Z,0.00
2018-11-03T01:51:56.742Z,0.00
2018-11-03T01:52:56.654Z,0.00
2018-11-03T01:53:56.589Z,0.00
2018-11-03T01:54:56.541Z,0.00
2018-11-03T01:55:56.488Z,0.00
2018-11-03T01:56:56.452Z,0.00
2018-11-03T01:57:56.381Z,0.00
2018-11-03T01:58:56.337Z,0.00
2018-11-03T01:59:56.257Z,0.00
2018-11-03T02:00:56.201Z,0.00
2018-11-03T02:01:56.171Z,0.00
2018-11-03T02:02:56.105Z,0.00
2018-11-03T02:03:56.048Z,0.00
2018-11-03T02:04:55.974Z,0.00
2018-11-03T02:05:55.921Z,0.00
2018-11-03T02:06:55.893Z,0.00
2018-11-03T02:07:55.807Z,0.00
2018-11-03T02:08:55.774Z,0.00
2018-11-03T02:09:55.694Z,0.00
2018-11-03T02:10:55.678Z,0.00
2018-11-03T02:11:55.613Z,0.00
2018-11-03T02:12:55.525Z,0.00
2018-11-03T02:13:55.479Z,0.00
2018-11-03T02:14:55.413Z,0.00
2018-11-03T02:15:55.355Z,0.00
2018-11-03T02:16:55.356Z,0.00
2018-11-03T02:17:55.251Z,0.00
2018-11-03T02:18:55.198Z,0.00
2018-11-03T02:19:55.136Z,0.00
2018-11-03T02:20:55.078Z,0.00
2018-11-03T02:21:55.044Z,0.00
2018-11-03T02:22:54.970Z,0.00
2018-11-03T02:23:54.933Z,0.00
2018-11-03T02:24:54.869Z,0.00
2018-11-03T02:25:54.825Z,0.00
2018-11-03T02:26:54.765Z,0.00
2018-11-03T02:27:54.680Z,0.00
2018-11-03T02:28:54.653Z,0.00
2018-11-03T02:29:54.571Z,0.00
2018-11-03T02:30:54.511Z,0.00
2018-11-03T02:31:54.491Z,0.00
2018-11-03T02:32:54.398Z,0.00
2018-11-03T02:33:54.368Z,0.00
2018-11-03T02:34:54.293Z,0.00
2018-11-03T02:35:54.238Z,0.00
2018-11-03T02:36:54.228Z,0.00
2018-11-03T02:37:54.118Z,0.00
2018-11-03T02:38:54.076Z,0.00
2018-11-03T02:39:54.035Z,0.00
2018-11-03T02:40:53.948Z,0.00
2018-11-03T02:41:53.924Z,0.00
2018-11-03T02:42:53.846Z,0.00
2018-11-03T02:43:53.783Z,0.00
2018-11-03T02:44:53.727Z,0.00
2018-11-03T02:45:53.693Z,0.00
2018-11-03T02:46:53.637Z,0.00
2018-11-03T02:47:53.562Z,0.00
2018-11-03T02:48:53.494Z,0.00
2018-11-03T02:49:53.452Z,0.00
2018-11-03T02:50:53.384Z,0.00
2018-11-03T02:51:53.354Z,0.00
2018-11-03T02:52:53.291Z,0.00
2018-11-03T02:53:53.220Z,0.00
2018-11-03T02:54:53.185Z,0.00
2018-11-03T02:55:53.106Z,0.00
2018-11-03T02:56:53.098Z,0.00
2018-11-03T02:57:52.995Z,0.00
2018-11-03T02:58:52.937Z,0.00
2018-11-03T02:59:52.883Z,0.00
2018-11-03T03:00:52.826Z,0.00
2018-11-03T03:01:52.775Z,0.00
2018-11-03T03:02:52.749Z,0.00
2018-11-03T03:03:52.655Z,0.00
2018-11-03T03:04:52.613Z,0.00
2018-11-03T03:05:52.537Z,0.00
2018-11-03T03:06:52.484Z,0.00
2018-11-03T03:07:52.449Z,0.00
2018-11-03T03:08:52.371Z,0.00
2018-11-03T03:09:52.314Z,0.00
2018-11-03T03:10:52.261Z,0.00
2018-11-03T03:11:52.199Z,0.00
2018-11-03T03:12:52.170Z,0.00
2018-11-03T03:13:52.087Z,0.00
2018-11-03T03:14:52.048Z,0.00
2018-11-03T03:15:51.993Z,0.00
2018-11-03T03:16:51.926Z,0.00
2018-11-03T03:17:51.912Z,0.00
2018-11-03T03:18:51.805Z,0.00
2018-11-03T03:19:51.768Z,0.00
2018-11-03T03:20:51.715Z,0.00
2018-11-03T03:21:51.644Z,0.00
2018-11-03T03:22:51.639Z,0.00
2018-11-03T03:23:51.524Z,0.00
2018-11-03T03:24:51.490Z,0.00
2018-11-03T03:25:51.440Z,0.00
2018-11-03T03:26:51.408Z,0.00
2018-11-03T03:27:51.335Z,0.00
2018-11-03T03:28:51.271Z,0.00
2018-11-03T03:29:51.200Z,0.00
2018-11-03T03:30:51.130Z,0.00
2018-11-03T03:31:51.076Z,0.00
2018-11-03T03:32:51.061Z,0.00
2018-11-03T03:33:50.996Z,0.00
2018-11-03T03:34:50.907Z,0.00
2018-11-03T03:35:50.847Z,0.00
2018-11-03T03:36:50.803Z,0.00
2018-11-03T03:37:50.827Z,0.00
2018-11-03T03:38:50.688Z,0.00
2018-11-03T03:39:50.625Z,0.00
2018-11-03T03:40:50.613Z,0.00
2018-11-03T03:41:50.534Z,0.00
2018-11-03T03:42:50.501Z,0.00
2018-11-03T03:43:50.430Z,0.00
2018-11-03T03:44:50.355Z,0.00
2018-11-03T03:45:50.285Z,0.00
2018-11-03T03:46:50.229Z,0.00
2018-11-03T03:47:50.198Z,0.00
2018-11-03T03:48:50.122Z,0.00
2018-11-03T03:49:50.066Z,0.00
2018-11-03T03:50:50.005Z,0.00
2018-11-03T03:51:49.948Z,0.00
2018-11-03T03:52:49.929Z,0.00
2018-11-03T03:53:49.848Z,0.00
2018-11-03T03:54:49.782Z,0.00
2018-11-03T03:55:49.719Z,0.00
2018-11-03T03:56:49.659Z,0.00
2018-11-03T03:57:49.647Z,0.00
2018-11-03T03:58:49.557Z,0.00
2018-11-03T03:59:49.515Z,0.00
2018-11-03T04:00:49.448Z,0.00
2018-11-03T04:01:49.389Z,0.00
2018-11-03T04:02:49.362Z,0.00
2018-11-03T04:03:49.279Z,0.00
2018-11-03T04:04:49.220Z,0.00
2018-11-03T04:05:49.155Z,0.00
2018-11-03T04:06:49.127Z,0.00
2018-11-03T04:07:49.075Z,0.00
2018-11-03T04:08:49.005Z,0.00
2018-11-03T04:09:48.936Z,0.00
2018-11-03T04:10:48.871Z,0.00
2018-11-03T04:11:48.828Z,0.00
2018-11-03T04:12:48.837Z,0.00
2018-11-03T04:13:48.709Z,0.00
2018-11-03T04:14:48.649Z,0.00
2018-11-03T04:15:48.602Z,0.00
2018-11-03T04:16:48.566Z,0.00
2018-11-03T04:17:48.534Z,0.00
2018-11-03T04:18:48.447Z,0.00
2018-11-03T04:19:48.373Z,0.00
2018-11-03T04:20:48.324Z,0.00
2018-11-03T04:21:48.266Z,0.00
2018-11-03T04:22:48.239Z,0.00
2018-11-03T04:23:48.149Z,0.00
2018-11-03T04:24:48.084Z,0.00
2018-11-03T04:25:48.049Z,0.00
2018-11-03T04:26:47.978Z,0.00
2018-11-03T04:27:47.953Z,0.00
2018-11-03T04:28:47.857Z,0.00
2018-11-03T04:29:47.809Z,0.00
2018-11-03T04:30:47.752Z,0.00
2018-11-03T04:31:47.684Z,0.00
2018-11-03T04:32:47.626Z,0.00
2018-11-03T04:33:47.652Z,0.00
2018-11-03T04:34:47.512Z,0.00
2018-11-03T04:35:47.457Z,0.00
2018-11-03T04:36:47.416Z,0.00
2018-11-03T04:37:47.379Z,0.00
2018-11-03T04:38:47.325Z,0.00
2018-11-03T04:39:47.262Z,0.00
2018-11-03T04:40:47.178Z,0.00
2018-11-03T04:41:47.141Z,0.00
2018-11-03T04:42:47.065Z,0.00
2018-11-03T04:43:47.034Z,0.00
2018-11-03T04:44:46.963Z,0.00
2018-11-03T04:45:46.897Z,0.00
2018-11-03T04:46:46.853Z,0.00
2018-11-03T04:47:46.791Z,0.00
2018-11-03T04:48:46.760Z,0.00
2018-11-03T04:49:46.685Z,0.00
2018-11-03T04:50:46.646Z,0.00
2018-11-03T04:51:46.573Z,0.00
2018-11-03T04:52:46.509Z,0.00
2018-11-03T04:53:46.491Z,0.00
2018-11-03T04:54:46.461Z,0.00
2018-11-03T04:55:46.364Z,0.00
2018-11-03T04:56:46.271Z,0.00
2018-11-03T04:57:46.277Z,0.00
2018-11-03T04:58:46.182Z,0.00
2018-11-03T04:59:46.117Z,0.00
2018-11-03T05:00:46.055Z,0.00
2018-11-03T05:01:45.990Z,0.00
2018-11-03T05:02:46.001Z,0.00
2018-11-03T05:03:45.939Z,0.00
2018-11-03T05:04:45.857Z,0.00
2018-11-03T05:05:45.757Z,0.00
2018-11-03T05:06:45.704Z,0.00
2018-11-03T05:07:45.650Z,0.00
2018-11-03T05:08:45.641Z,0.00
2018-11-03T05:09:45.608Z,0.00
2018-11-03T05:10:45.502Z,0.00
2018-11-03T05:11:45.428Z,0.00
2018-11-03T05:12:45.401Z,0.00
2018-11-03T05:13:45.347Z,0.00
2018-11-03T05:14:45.263Z,0.00
2018-11-03T05:15:45.195Z,0.00
2018-11-03T05:16:45.167Z,0.00
2018-11-03T05:17:45.083Z,0.00
2018-11-03T05:18:45.093Z,0.00
2018-11-03T05:19:44.978Z,0.00
2018-11-03T05:20:44.980Z,0.00
2018-11-03T05:21:44.856Z,0.00
2018-11-03T05:22:44.807Z,0.00
2018-11-03T05:23:44.804Z,0.00
2018-11-03T05:24:44.702Z,0.00
2018-11-03T05:25:44.666Z,0.00
2018-11-03T05:26:44.613Z,0.00
2018-11-03T05:27:44.528Z,0.00
2018-11-03T05:28:44.535Z,0.00
2018-11-03T05:29:44.403Z,0.00
2018-11-03T05:30:44.389Z,0.00
2018-11-03T05:31:44.302Z,0.00
2018-11-03T05:32:44.276Z,0.00
2018-11-03T05:33:44.252Z,0.00
2018-11-03T05:34:44.157Z,0.00
2018-11-03T05:35:44.110Z,0.00
2018-11-03T05:36:44.033Z,0.00
2018-11-03T05:37:43.978Z,0.00
2018-11-03T05:38:44.006Z,0.00
2018-11-03T05:39:43.871Z,0.00
2018-11-03T05:40:43.798Z,0.00
2018-11-03T05:41:43.756Z,0.00
2018-11-03T05:42:43.695Z,0.00
2018-11-03T05:43:43.674Z,0.00
2018-11-03T05:44:43.682Z,0.00
2018-11-03T05:45:43.518Z,0.00
2018-11-03T05:46:43.529Z,0.00
2018-11-03T05:47:43.425Z,0.00
2018-11-03T05:48:43.362Z,0.00
2018-11-03T05:49:43.316Z,0.00
2018-11-03T05:50:43.239Z,0.00
2018-11-03T05:51:43.178Z,0.00
2018-11-03T05:52:43.120Z,0.00
2018-11-03T05:53:43.056Z,0.00
2018-11-03T05:54:43.018Z,0.00
2018-11-03T05:55:42.932Z,0.00
2018-11-03T05:56:42.878Z,0.00
2018-11-03T05:57:42.818Z,0.00
2018-11-03T05:58:42.808Z,0.00
2018-11-03T05:59:42.748Z,0.00
2018-11-03T06:00:42.689Z,0.00
2018-11-03T06:01:42.614Z,0.00
2018-11-03T06:02:42.572Z,0.00
2018-11-03T06:03:42.498Z,0.00
2018-11-03T06:04:42.448Z,0.00
2018-11-03T06:05:42.369Z,0.00
2018-11-03T06:06:42.322Z,0.00
2018-11-03T06:07:42.267Z,0.00
2018-11-03T06:08:42.344Z,0.00
2018-11-03T06:09:42.231Z,0.00
2018-11-03T06:10:42.093Z,0.00
2018-11-03T06:11:42.059Z,0.00
2018-11-03T06:12:42.041Z,0.00
2018-11-03T06:13:42.027Z,0.00
2018-11-03T06:14:42.003Z,0.00
2018-11-03T06:15:41.876Z,0.00
2018-11-03T06:16:41.752Z,0.00
2018-11-03T06:17:41.682Z,0.00
2018-11-03T06:18:41.654Z,0.00
2018-11-03T06:19:41.620Z,0.00
2018-11-03T06:20:41.520Z,0.00
2018-11-03T06:21:41.481Z,0.00
2018-11-03T06:22:41.477Z,0.00
2018-11-03T06:23:41.382Z,0.00
2018-11-03T06:24:41.323Z,0.00
2018-11-03T06:25:41.235Z,0.00
2018-11-03T06:26:41.175Z,0.00
2018-11-03T06:27:41.118Z,5.63
2018-11-03T06:28:41.070Z,5.63
2018-11-03T06:29:41.031Z,5.63
2018-11-03T06:30:40.951Z,5.63
2018-11-03T06:31:40.892Z,5.63
2018-11-03T06:32:40.839Z,5.63
2018-11-03T06:33:40.786Z,5.63
2018-11-03T06:34:40.755Z,5.63
2018-11-03T06:35:40.680Z,5.63
2018-11-03T06:36:40.627Z,5.63
2018-11-03T06:37:40.556Z,5.63
2018-11-03T06:38:40.511Z,5.63
2018-11-03T06:39:40.463Z,11.25
2018-11-03T06:40:40.382Z,11.25
2018-11-03T06:41:40.337Z,11.25
2018-11-03T06:42:40.271Z,11.25
2018-11-03T06:43:40.224Z,11.25
2018-11-03T06:44:40.196Z,11.25
2018-11-03T06:45:40.100Z,11.25
2018-11-03T06:46:40.143Z,11.25
2018-11-03T06:47:40.026Z,16.88
2018-11-03T06:48:39.925Z,16.88
2018-11-03T06:49:39.904Z,16.88
2018-11-03T06:50:39.820Z,16.88
2018-11-03T06:51:39.772Z,22.50
2018-11-03T06:52:39.707Z,22.50
2018-11-03T06:53:39.645Z,22.50
2018-11-03T06:54:39.626Z,22.50
2018-11-03T06:55:39.540Z,28.13
2018-11-03T06:56:39.472Z,28.13
2018-11-03T06:57:39.419Z,28.13
2018-11-03T06:58:39.375Z,33.75
2018-11-03T06:59:39.317Z,33.75
2018-11-03T07:00:39.294Z,39.38
2018-11-03T07:01:39.192Z,45.00
2018-11-03T07:02:39.134Z,45.00
2018-11-03T07:03:39.086Z,50.63
2018-11-03T07:04:39.023Z,50.63
2018-11-03T07:05:39.013Z,56.25
2018-11-03T07:06:38.947Z,56.25
2018-11-03T07:07:38.850Z,56.25
2018-11-03T07:08:38.795Z,56.25
2018-11-03T07:09:38.737Z,61.88
2018-11-03T07:10:38.707Z,61.88
2018-11-03T07:11:38.713Z,61.88
2018-11-03T07:12:38.765Z,61.88
2018-11-03T07:13:38.516Z,67.50
2018-11-03T07:14:38.459Z,67.50
2018-11-03T07:15:38.421Z,73.13
2018-11-03T07:16:38.353Z,78.75
2018-11-03T07:17:38.286Z,78.75
2018-11-03T07:18:38.253Z,78.75
2018-11-03T07:19:38.169Z,84.38
2018-11-03T07:20:38.239Z,84.38
2018-11-03T07:21:38.104Z,78.75
2018-11-03T07:22:38.008Z,78.75
2018-11-03T07:23:37.946Z,78.75
2018-11-03T07:24:37.898Z,78.75
2018-11-03T07:25:37.882Z,78.75
2018-11-03T07:26:37.788Z,84.38
2018-11-03T07:27:37.723Z,84.38
2018-11-03T07:28:37.674Z,84.38
2018-11-03T07:29:37.671Z,84.38
2018-11-03T07:30:37.581Z,90.00
2018-11-03T07:31:37.502Z,95.63
2018-11-03T07:32:37.447Z,95.63
2018-11-03T07:33:37.391Z,95.63
2018-11-03T07:34:37.328Z,95.63
2018-11-03T07:35:37.310Z,95.63
2018-11-03T07:36:37.223Z,95.63
2018-11-03T07:37:37.162Z,95.63
2018-11-03T07:38:37.104Z,95.63
2018-11-03T07:39:37.099Z,95.63
2018-11-03T07:40:37.035Z,95.63
2018-11-03T07:41:37.148Z,95.63
2018-11-03T07:42:36.970Z,95.63
2018-11-03T07:43:36.833Z,95.63
2018-11-03T07:44:36.778Z,95.63
2018-11-03T07:45:36.735Z,95.63
2018-11-03T07:46:36.665Z,101.25
2018-11-03T07:47:36.649Z,101.25
2018-11-03T07:48:36.633Z,101.25
2018-11-03T07:49:36.494Z,84.38
2018-11-03T07:50:36.464Z,84.38
2018-11-03T07:51:36.397Z,101.25
2018-11-03T07:52:36.326Z,118.13
2018-11-03T07:53:36.283Z,106.88
2018-11-03T07:54:36.312Z,95.63
2018-11-03T07:55:36.191Z,101.25
2018-11-03T07:56:36.113Z,106.88
2018-11-03T07:57:36.046Z,118.13
2018-11-03T07:58:36.004Z,123.75
2018-11-03T07:59:35.936Z,123.75
2018-11-03T08:00:36.017Z,129.38
2018-11-03T08:01:35.830Z,118.13
2018-11-03T08:02:35.788Z,123.75
2018-11-03T08:03:35.729Z,118.13
2018-11-03T08:04:35.670Z,112.50
2018-11-03T08:05:35.632Z,112.50
2018-11-03T08:06:35.549Z,112.50
2018-11-03T08:07:35.507Z,112.50
2018-11-03T08:08:35.450Z,112.50
2018-11-03T08:09:35.399Z,112.50
2018-11-03T08:10:35.373Z,112.50
2018-11-03T08:11:35.299Z,106.88
2018-11-03T08:12:35.230Z,106.88
2018-11-03T08:13:35.187Z,106.88
2018-11-03T08:14:35.117Z,118.13
2018-11-03T08:15:35.125Z,118.13
2018-11-03T08:16:35.006Z,123.75
2018-11-03T08:17:34.962Z,129.38
2018-11-03T08:18:34.903Z,129.38
2018-11-03T08:19:34.848Z,129.38
2018-11-03T08:20:34.831Z,118.13
2018-11-03T08:21:34.737Z,112.50
2018-11-03T08:22:34.680Z,112.50
2018-11-03T08:23:34.625Z,106.88
2018-11-03T08:24:34.579Z,106.88
2018-11-03T08:25:34.530Z,118.13
2018-11-03T08:26:34.497Z,118.13
2018-11-03T08:27:34.420Z,118.13
2018-11-03T08:28:34.383Z,118.13
2018-11-03T08:29:34.297Z,118.13
2018-11-03T08:30:34.256Z,112.50
2018-11-03T08:31:34.255Z,112.50
2018-11-03T08:32:34.146Z,118.13
2018-11-03T08:33:34.113Z,118.13
2018-11-03T08:34:34.033Z,118.13
2018-11-03T08:35:33.993Z,112.50
2018-11-03T08:36:33.955Z,112.50
2018-11-03T08:37:33.911Z,112.50
2018-11-03T08:38:33.824Z,112.50
2018-11-03T08:39:33.816Z,118.13
2018-11-03T08:40:33.705Z,118.13
2018-11-03T08:41:33.691Z,135.00
2018-11-03T08:42:33.615Z,129.38
2018-11-03T08:43:33.556Z,129.38
2018-11-03T08:44:33.488Z,129.38
2018-11-03T08:45:33.438Z,129.38
2018-11-03T08:46:33.430Z,135.00
2018-11-03T08:47:33.322Z,123.75
2018-11-03T08:48:33.305Z,123.75
2018-11-03T08:49:33.242Z,140.63
2018-11-03T08:50:33.165Z,146.25
2018-11-03T08:51:33.163Z,129.38
2018-11-03T08:52:33.058Z,123.75
2018-11-03T08:53:32.998Z,123.75
2018-11-03T08:54:32.952Z,118.13
2018-11-03T08:55:32.910Z,106.88
2018-11-03T08:56:32.863Z,101.25
2018-11-03T08:57:32.789Z,106.88
2018-11-03T08:58:32.740Z,101.25
2018-11-03T08:59:32.746Z,118.13
2018-11-03T09:00:32.645Z,118.13
2018-11-03T09:01:32.593Z,118.13
2018-11-03T09:02:32.526Z,123.75
2018-11-03T09:03:32.482Z,118.13
2018-11-03T09:04:32.416Z,118.13
2018-11-03T09:05:32.365Z,118.13
2018-11-03T09:06:32.326Z,112.50
2018-11-03T09:07:32.272Z,112.50
2018-11-03T09:08:32.233Z,112.50
2018-11-03T09:09:32.151Z,118.13
2018-11-03T09:10:32.101Z,123.75
2018-11-03T09:11:32.063Z,129.38
2018-11-03T09:12:31.981Z,135.00
2018-11-03T09:13:31.927Z,129.38
2018-11-03T09:14:31.984Z,129.38
2018-11-03T09:15:31.821Z,129.38
2018-11-03T09:16:31.793Z,135.00
2018-11-03T09:17:31.713Z,135.00
2018-11-03T09:18:31.688Z,129.38
2018-11-03T09:19:31.611Z,129.38
2018-11-03T09:20:31.554Z,123.75
2018-11-03T09:21:31.574Z,123.75
2018-11-03T09:22:31.480Z,129.38
2018-11-03T09:23:31.391Z,129.38
2018-11-03T09:24:31.338Z,135.00
2018-11-03T09:25:31.291Z,135.00
2018-11-03T09:26:31.235Z,135.00
2018-11-03T09:27:31.204Z,135.00
2018-11-03T09:28:31.124Z,135.00
2018-11-03T09:29:31.077Z,140.63
2018-11-03T09:30:31.016Z,135.00
2018-11-03T09:31:30.978Z,140.63
2018-11-03T09:32:30.934Z,135.00
2018-11-03T09:33:30.860Z,135.00
2018-11-03T09:34:30.870Z,129.38
2018-11-03T09:35:30.747Z,135.00
2018-11-03T09:36:30.696Z,129.38
2018-11-03T09:37:30.665Z,129.38
2018-11-03T09:38:30.620Z,129.38
2018-11-03T09:39:30.534Z,129.38
2018-11-03T09:40:30.481Z,129.38
2018-11-03T09:41:30.439Z,129.38
2018-11-03T09:42:30.401Z,129.38
2018-11-03T09:43:30.370Z,129.38
2018-11-03T09:44:30.292Z,129.38
2018-11-03T09:45:30.239Z,129.38
2018-11-03T09:46:30.181Z,129.38
2018-11-03T09:47:30.151Z,129.38
2018-11-03T09:48:30.065Z,129.38
2018-11-03T09:49:30.006Z,129.38
2018-11-03T09:50:29.970Z,129.38
2018-11-03T09:51:29.890Z,123.75
2018-11-03T09:52:29.866Z,123.75
2018-11-03T09:53:29.788Z,118.13
2018-11-03T09:54:29.732Z,112.50
2018-11-03T09:55:29.680Z,112.50
2018-11-03T09:56:29.680Z,112.50
2018-11-03T09:57:29.573Z,101.25
2018-11-03T09:58:29.553Z,101.25
2018-11-03T09:59:29.476Z,95.63
2018-11-03T10:00:29.420Z,90.00
2018-11-03T10:01:29.379Z,95.63
2018-11-03T10:02:29.378Z,101.25
2018-11-03T10:03:29.277Z,101.25
2018-11-03T10:04:29.195Z,95.63
2018-11-03T10:05:29.145Z,101.25
2018-11-03T10:06:29.147Z,101.25
2018-11-03T10:07:29.055Z,101.25
2018-11-03T10:08:29.005Z,101.25
2018-11-03T10:09:28.958Z,106.88
2018-11-03T10:10:28.875Z,106.88
2018-11-03T10:11:28.841Z,106.88
2018-11-03T10:12:28.781Z,112.50
2018-11-03T10:13:28.744Z,106.88
2018-11-03T10:14:28.673Z,101.25
2018-11-03T10:15:28.616Z,101.25
2018-11-03T10:16:28.563Z,101.25
2018-11-03T10:17:28.509Z,95.63
2018-11-03T10:18:28.495Z,95.63
2018-11-03T10:19:28.407Z,95.63
2018-11-03T10:20:28.337Z,95.63
2018-11-03T10:21:28.286Z,95.63
2018-11-03T10:22:28.327Z,95.63
2018-11-03T10:23:28.240Z,95.63
2018-11-03T10:24:28.174Z,95.63
2018-11-03T10:25:28.166Z,90.00
2018-11-03T10:26:28.022Z,90.00
2018-11-03T10:27:27.969Z,90.00
2018-11-03T10:28:27.941Z,84.38
2018-11-03T10:29:27.862Z,84.38
2018-11-03T10:30:27.814Z,84.38
2018-11-03T10:31:27.756Z,78.75
2018-11-03T10:32:27.711Z,78.75
2018-11-03T10:33:27.716Z,73.13
2018-11-03T10:34:27.616Z,73.13
2018-11-03T10:35:27.544Z,73.13
2018-11-03T10:36:27.499Z,73.13
2018-11-03T10:37:27.485Z,73.13
2018-11-03T10:38:27.429Z,73.13
2018-11-03T10:39:27.324Z,73.13
2018-11-03T10:40:27.308Z,78.75
2018-11-03T10:41:27.247Z,73.13
2018-11-03T10:42:27.181Z,78.75
2018-11-03T10:43:27.176Z,78.75
2018-11-03T10:44:27.064Z,78.75
2018-11-03T10:45:27.012Z,78.75
2018-11-03T10:46:27.052Z,78.75
2018-11-03T10:47:26.929Z,78.75
2018-11-03T10:48:26.875Z,73.13
2018-11-03T10:49:26.819Z,78.75
2018-11-03T10:50:26.756Z,73.13
2018-11-03T10:51:26.710Z,73.13
2018-11-03T10:52:26.646Z,73.13
2018-11-03T10:53:26.625Z,73.13
2018-11-03T10:54:26.538Z,73.13
2018-11-03T10:55:26.479Z,73.13
2018-11-03T10:56:26.453Z,73.13
2018-11-03T10:57:26.385Z,73.13
2018-11-03T10:58:26.358Z,73.13
2018-11-03T10:59:26.263Z,73.13
2018-11-03T11:00:26.221Z,78.75
2018-11-03T11:01:26.167Z,73.13
2018-11-03T11:02:26.167Z,73.13
2018-11-03T11:03:26.106Z,73.13
2018-11-03T11:04:26.053Z,73.13
2018-11-03T11:05:25.959Z,78.75
2018-11-03T11:06:25.915Z,78.75
2018-11-03T11:07:25.871Z,78.75
2018-11-03T11:08:25.873Z,78.75
2018-11-03T11:09:25.767Z,78.75
2018-11-03T11:10:25.705Z,78.75
2018-11-03T11:11:25.642Z,78.75
2018-11-03T11:12:25.586Z,78.75
2018-11-03T11:13:25.612Z,78.75
2018-11-03T11:14:25.532Z,73.13
2018-11-03T11:15:25.425Z,73.13
2018-11-03T11:16:25.436Z,73.13
2018-11-03T11:17:25.515Z,73.13
2018-11-03T11:18:25.288Z,67.50
2018-11-03T11:19:25.271Z,67.50
2018-11-03T11:20:25.164Z,67.50
2018-11-03T11:21:25.132Z,67.50
2018-11-03T11:22:25.064Z,67.50
2018-11-03T11:23:25.114Z,67.50
2018-11-03T11:24:25.180Z,67.50
2018-11-03T11:25:24.965Z,67.50
2018-11-03T11:26:24.853Z,67.50
2018-11-03T11:27:24.817Z,67.50
2018-11-03T11:28:24.757Z,67.50
2018-11-03T11:29:24.706Z,61.88
2018-11-03T11:30:24.687Z,67.50
2018-11-03T11:31:24.702Z,67.50
2018-11-03T11:32:24.541Z,67.50
2018-11-03T11:33:24.505Z,67.50
2018-11-03T11:34:24.455Z,67.50
2018-11-03T11:35:24.391Z,67.50
2018-11-03T11:36:24.315Z,67.50
2018-11-03T11:37:24.301Z,67.50
2018-11-03T11:38:24.227Z,67.50
2018-11-03T11:39:24.191Z,67.50
2018-11-03T11:40:24.100Z,67.50
2018-11-03T11:41:24.052Z,67.50
2018-11-03T11:42:24.051Z,67.50
2018-11-03T11:43:23.956Z,67.50
2018-11-03T11:44:23.928Z,67.50
2018-11-03T11:45:23.859Z,67.50
2018-11-03T11:46:23.797Z,67.50
2018-11-03T11:47:23.770Z,67.50
2018-11-03T11:48:23.727Z,67.50
2018-11-03T11:49:23.685Z,67.50
2018-11-03T11:50:23.614Z,67.50
2018-11-03T11:51:23.547Z,67.50
2018-11-03T11:52:23.489Z,67.50
2018-11-03T11:53:23.420Z,67.50
2018-11-03T11:54:23.401Z,67.50
2018-11-03T11:55:23.331Z,67.50
2018-11-03T11:56:23.285Z,67.50
2018-11-03T11:57:23.241Z,67.50
2018-11-03T11:58:23.172Z,67.50
2018-11-03T11:59:23.145Z,67.50
2018-11-03T12:00:23.116Z,67.50
2018-11-03T12:01:23.038Z,67.50
2018-11-03T12:02:23.110Z,67.50
2018-11-03T12:03:22.922Z,67.50
2018-11-03T12:04:22.928Z,67.50
2018-11-03T12:05:22.853Z,67.50
2018-11-03T12:06:22.742Z,67.50
2018-11-03T12:07:22.713Z,67.50
2018-11-03T12:08:22.631Z,67.50
2018-11-03T12:09:22.595Z,67.50
2018-11-03T12:10:22.521Z,67.50
2018-11-03T12:11:22.481Z,67.50
2018-11-03T12:12:22.411Z,67.50
2018-11-03T12:13:22.361Z,67.50
2018-11-03T12:14:22.345Z,61.88
2018-11-03T12:15:22.304Z,61.88
2018-11-03T12:16:22.270Z,61.88
2018-11-03T12:17:22.165Z,67.50
2018-11-03T12:18:22.096Z,67.50
2018-11-03T12:19:22.090Z,67.50
2018-11-03T12:20:22.000Z,67.50
2018-11-03T12:21:21.941Z,67.50
2018-11-03T12:22:21.901Z,67.50
2018-11-03T12:23:21.838Z,67.50
2018-11-03T12:24:21.821Z,67.50
2018-11-03T12:25:21.794Z,67.50
2018-11-03T12:26:21.681Z,67.50
2018-11-03T12:27:21.655Z,67.50
2018-11-03T12:28:21.577Z,67.50
2018-11-03T12:29:21.558Z,67.50
2018-11-03T12:30:21.475Z,67.50
2018-11-03T12:31:21.477Z,67.50
2018-11-03T12:32:21.374Z,67.50
2018-11-03T12:33:21.316Z,67.50
2018-11-03T12:34:21.313Z,67.50
2018-11-03T12:35:21.245Z,61.88
2018-11-03T12:36:21.158Z,61.88
2018-11-03T12:37:21.101Z,61.88
2018-11-03T12:38:21.049Z,61.88
2018-11-03T12:39:20.998Z,61.88
2018-11-03T12:40:21.049Z,61.88
2018-11-03T12:41:20.997Z,61.88
2018-11-03T12:42:20.846Z,61.88
2018-11-03T12:43:20.819Z,61.88
2018-11-03T12:44:20.741Z,61.88
2018-11-03T12:45:20.727Z,61.88
2018-11-03T12:46:20.642Z,61.88
2018-11-03T12:47:20.599Z,61.88
2018-11-03T12:48:20.597Z,61.88
2018-11-03T12:49:20.483Z,61.88
2018-11-03T12:50:20.474Z,61.88
2018-11-03T12:51:20.381Z,61.88
2018-11-03T12:52:20.332Z,61.88
2018-11-03T12:53:20.279Z,61.88
2018-11-03T12:54:20.234Z,61.88
2018-11-03T12:55:20.258Z,61.88
2018-11-03T12:56:20.122Z,61.88
2018-11-03T12:57:20.062Z,67.50
2018-11-03T12:58:20.025Z,61.88
2018-11-03T12:59:19.992Z,61.88